SCHT weather

Tic Toc Airport
Chaiten, Los Lagos Region, Chile

Public forecast

Using degrees Celsius for public forecast. Weather courtesy of forecast.io.

Closest aviation weather report (METAR) to Tic Toc Airport

Closest report is Melinka Airport, 40.2 nm (74.5 km) WSW. Retrieved 2019/10/22 15:00 UTC (44 minutes ago):

SCMK 221500Z 21010KT 9999 SCT046 13/05 Q1026

Closest aviation forecast (TAF) to Tic Toc Airport

Forecast is more than 12 hours old.

Closest forecast is Chaitén Airport, 41.8 nm (77.3 km) NNE. Retrieved 2018/09/16 12:33 UTC (1 year ago):

TAF SPJL 161124Z 1612/1712 VRB04KT 9999 FEW020LVA0551 161131 GG KWBCYMYX MPZZMAMX 161130 SCSCYZYX SPCH03 SCTN 161130 SPECI SCTN 161130Z 36020G31KT +RA SCT013 OVC017 11/09 Q1009